KCDR/CDR METAR and TAF weather

Enter ICAO airport designator
Station Type Date Time Source
KCDR METAR 2020/04/06 13:53 UTC NOAA

KCDR 061353Z AUTO 00000KT 10SM CLR 06/03 A2974 RMK AO2 SLP078 T00610033 $


Station Type Date Time Source
KCDR Decoded METAR 2020/04/06 13:53 UTC NOAA

CHADRON MUNICIPAL AIRPORT, NE, United States (KCDR) 42-50N 103-06W 1010M
Apr 06, 2020 - 09:53 AM EDT / 2020.04.06 1353 UTC
Wind: Calm:0
Visibility: 10 mile(s):0
Sky conditions: clear
Temperature: 43.0 F (6.1 C)
Dew Point: 37.9 F (3.3 C)
Relative Humidity: 82%
Pressure (altimeter): 29.74 in. Hg (1007 hPa)
ob: KCDR 061353Z AUTO 00000KT 10SM CLR 06/03 A2974 RMK AO2 SLP078 T00610033
cycle: 14

Station Type Date Time Source
KCDR TAF 2020/04/06 12:30 UTC NOAA

TAF KCDR 061127Z 0612/0712 21008KT P6SM SCT120
FM061700 25018G25KT P6SM SCT150
FM070100 23010KT P6SM BKN120

Example: see airport list